sensor_id;sensor_type;location;lat;lon;timestamp;P1;durP1;ratioP1;P2;durP2;ratioP2
17151;SDS011;8691;50.828;4.700;2023-02-28T00:00:22;10.10;;;7.50;;
17151;SDS011;8691;50.828;4.700;2023-02-28T00:02:50;9.52;;;7.65;;
17151;SDS011;8691;50.828;4.700;2023-02-28T00:05:18;10.10;;;8.73;;
17151;SDS011;8691;50.828;4.700;2023-02-28T00:07:43;11.40;;;10.20;;
17151;SDS011;8691;50.828;4.700;2023-02-28T00:10:13;14.02;;;11.75;;
17151;SDS011;8691;50.828;4.700;2023-02-28T00:12:38;11.38;;;10.15;;
17151;SDS011;8691;50.828;4.700;2023-02-28T00:15:05;8.43;;;7.60;;
17151;SDS011;8691;50.828;4.700;2023-02-28T00:17:32;9.40;;;8.00;;
17151;SDS011;8691;50.828;4.700;2023-02-28T00:19:59;8.60;;;6.90;;
17151;SDS011;8691;50.828;4.700;2023-02-28T00:22:28;7.00;;;6.15;;
17151;SDS011;8691;50.828;4.700;2023-02-28T00:24:55;10.40;;;7.90;;
17151;SDS011;8691;50.828;4.700;2023-02-28T00:27:22;9.10;;;7.18;;
17151;SDS011;8691;50.828;4.700;2023-02-28T00:29:49;7.95;;;7.15;;
17151;SDS011;8691;50.828;4.700;2023-02-28T00:32:16;8.20;;;6.60;;
17151;SDS011;8691;50.828;4.700;2023-02-28T00:34:42;8.27;;;6.78;;
17151;SDS011;8691;50.828;4.700;2023-02-28T00:37:09;7.35;;;6.57;;
17151;SDS011;8691;50.828;4.700;2023-02-28T00:39:36;8.43;;;6.57;;
17151;SDS011;8691;50.828;4.700;2023-02-28T00:42:03;8.13;;;6.73;;
17151;SDS011;8691;50.828;4.700;2023-02-28T00:44:31;7.70;;;6.93;;
17151;SDS011;8691;50.828;4.700;2023-02-28T00:46:58;8.45;;;6.65;;
17151;SDS011;8691;50.828;4.700;2023-02-28T00:49:25;7.50;;;6.80;;
17151;SDS011;8691;50.828;4.700;2023-02-28T00:51:51;6.90;;;6.20;;
17151;SDS011;8691;50.828;4.700;2023-02-28T00:54:18;7.67;;;6.83;;
17151;SDS011;8691;50.828;4.700;2023-02-28T00:56:45;7.53;;;6.60;;
17151;SDS011;8691;50.828;4.700;2023-02-28T00:59:13;9.03;;;6.50;;
17151;SDS011;8691;50.828;4.700;2023-02-28T01:01:39;9.68;;;6.57;;
17151;SDS011;8691;50.828;4.700;2023-02-28T01:04:06;8.10;;;6.90;;
17151;SDS011;8691;50.828;4.700;2023-02-28T01:06:33;8.83;;;7.03;;
17151;SDS011;8691;50.828;4.700;2023-02-28T01:09:00;8.27;;;6.90;;
17151;SDS011;8691;50.828;4.700;2023-02-28T01:11:27;7.60;;;6.23;;
17151;SDS011;8691;50.828;4.700;2023-02-28T01:13:54;7.60;;;6.53;;
17151;SDS011;8691;50.828;4.700;2023-02-28T01:16:20;9.17;;;6.73;;
17151;SDS011;8691;50.828;4.700;2023-02-28T01:18:47;8.77;;;6.50;;
17151;SDS011;8691;50.828;4.700;2023-02-28T01:21:15;9.83;;;7.67;;
17151;SDS011;8691;50.828;4.700;2023-02-28T01:23:41;9.50;;;6.93;;
17151;SDS011;8691;50.828;4.700;2023-02-28T01:26:13;7.53;;;6.73;;
17151;SDS011;8691;50.828;4.700;2023-02-28T01:28:44;8.60;;;7.62;;
17151;SDS011;8691;50.828;4.700;2023-02-28T01:31:11;11.88;;;9.48;;
17151;SDS011;8691;50.828;4.700;2023-02-28T01:33:38;15.95;;;12.23;;
17151;SDS011;8691;50.828;4.700;2023-02-28T01:36:06;12.52;;;10.45;;
17151;SDS011;8691;50.828;4.700;2023-02-28T01:38:32;10.97;;;8.27;;
17151;SDS011;8691;50.828;4.700;2023-02-28T01:40:59;9.87;;;7.80;;
17151;SDS011;8691;50.828;4.700;2023-02-28T01:43:26;9.00;;;7.90;;
17151;SDS011;8691;50.828;4.700;2023-02-28T01:45:55;8.73;;;7.60;;
17151;SDS011;8691;50.828;4.700;2023-02-28T01:48:26;9.65;;;8.40;;
17151;SDS011;8691;50.828;4.700;2023-02-28T01:50:51;10.65;;;9.15;;
17151;SDS011;8691;50.828;4.700;2023-02-28T01:53:19;11.52;;;10.27;;
17151;SDS011;8691;50.828;4.700;2023-02-28T01:55:46;11.88;;;10.20;;
17151;SDS011;8691;50.828;4.700;2023-02-28T01:58:12;13.13;;;9.80;;
17151;SDS011;8691;50.828;4.700;2023-02-28T02:00:40;9.53;;;8.53;;
17151;SDS011;8691;50.828;4.700;2023-02-28T02:03:08;14.02;;;12.38;;
17151;SDS011;8691;50.828;4.700;2023-02-28T02:05:34;14.17;;;11.17;;
17151;SDS011;8691;50.828;4.700;2023-02-28T02:08:03;19.80;;;17.70;;
17151;SDS011;8691;50.828;4.700;2023-02-28T02:10:50;14.45;;;11.10;;
17151;SDS011;8691;50.828;4.700;2023-02-28T02:13:23;13.67;;;12.37;;
17151;SDS011;8691;50.828;4.700;2023-02-28T02:16:08;12.48;;;11.18;;
17151;SDS011;8691;50.828;4.700;2023-02-28T02:18:33;11.55;;;10.23;;
17151;SDS011;8691;50.828;4.700;2023-02-28T02:27:20;9.60;;;8.65;;
17151;SDS011;8691;50.828;4.700;2023-02-28T02:35:24;9.35;;;7.32;;
17151;SDS011;8691;50.828;4.700;2023-02-28T02:37:51;9.45;;;7.35;;
17151;SDS011;8691;50.828;4.700;2023-02-28T02:42:56;9.55;;;7.80;;
17151;SDS011;8691;50.828;4.700;2023-02-28T02:45:25;8.57;;;7.63;;
17151;SDS011;8691;50.828;4.700;2023-02-28T02:47:51;8.17;;;7.37;;
17151;SDS011;8691;50.828;4.700;2023-02-28T02:50:23;9.43;;;8.30;;
17151;SDS011;8691;50.828;4.700;2023-02-28T02:52:52;8.85;;;7.95;;
17151;SDS011;8691;50.828;4.700;2023-02-28T02:55:18;9.00;;;7.82;;
17151;SDS011;8691;50.828;4.700;2023-02-28T02:57:52;9.68;;;7.80;;
17151;SDS011;8691;50.828;4.700;2023-02-28T03:00:18;9.07;;;8.10;;
17151;SDS011;8691;50.828;4.700;2023-02-28T03:02:45;11.48;;;8.12;;
17151;SDS011;8691;50.828;4.700;2023-02-28T03:05:17;9.80;;;7.50;;
17151;SDS011;8691;50.828;4.700;2023-02-28T03:07:41;11.43;;;8.13;;
17151;SDS011;8691;50.828;4.700;2023-02-28T03:15:55;10.33;;;8.30;;
17151;SDS011;8691;50.828;4.700;2023-02-28T03:21:40;9.80;;;8.43;;
17151;SDS011;8691;50.828;4.700;2023-02-28T03:23:29;10.45;;;7.90;;
17151;SDS011;8691;50.828;4.700;2023-02-28T03:26:12;9.10;;;7.97;;
17151;SDS011;8691;50.828;4.700;2023-02-28T03:28:51;9.40;;;8.37;;
17151;SDS011;8691;50.828;4.700;2023-02-28T03:31:20;10.05;;;8.45;;
17151;SDS011;8691;50.828;4.700;2023-02-28T03:33:55;9.93;;;8.77;;
17151;SDS011;8691;50.828;4.700;2023-02-28T03:36:28;9.12;;;8.20;;
17151;SDS011;8691;50.828;4.700;2023-02-28T03:38:58;9.57;;;8.68;;
17151;SDS011;8691;50.828;4.700;2023-02-28T03:41:32;9.97;;;8.97;;
17151;SDS011;8691;50.828;4.700;2023-02-28T03:44:02;10.00;;;8.97;;
17151;SDS011;8691;50.828;4.700;2023-02-28T03:46:27;10.43;;;8.87;;
17151;SDS011;8691;50.828;4.700;2023-02-28T03:48:59;10.23;;;8.27;;
17151;SDS011;8691;50.828;4.700;2023-02-28T03:51:22;9.33;;;8.20;;
17151;SDS011;8691;50.828;4.700;2023-02-28T03:53:53;9.20;;;8.30;;
17151;SDS011;8691;50.828;4.700;2023-02-28T03:56:19;10.20;;;9.20;;
17151;SDS011;8691;50.828;4.700;2023-02-28T03:58:55;9.80;;;8.80;;
17151;SDS011;8691;50.828;4.700;2023-02-28T04:01:20;11.33;;;9.20;;
17151;SDS011;8691;50.828;4.700;2023-02-28T04:04:03;9.98;;;8.73;;
17151;SDS011;8691;50.828;4.700;2023-02-28T04:06:31;9.73;;;8.70;;
17151;SDS011;8691;50.828;4.700;2023-02-28T04:08:56;9.88;;;8.80;;
17151;SDS011;8691;50.828;4.700;2023-02-28T04:11:27;9.90;;;8.90;;
17151;SDS011;8691;50.828;4.700;2023-02-28T04:13:50;10.85;;;9.02;;
17151;SDS011;8691;50.828;4.700;2023-02-28T04:16:17;10.18;;;9.18;;
17151;SDS011;8691;50.828;4.700;2023-02-28T04:18:44;9.60;;;8.62;;
17151;SDS011;8691;50.828;4.700;2023-02-28T04:21:11;10.57;;;9.00;;
17151;SDS011;8691;50.828;4.700;2023-02-28T04:23:38;10.20;;;9.17;;
17151;SDS011;8691;50.828;4.700;2023-02-28T04:26:05;10.17;;;9.17;;
17151;SDS011;8691;50.828;4.700;2023-02-28T04:28:32;11.77;;;10.57;;
17151;SDS011;8691;50.828;4.700;2023-02-28T04:31:00;12.53;;;10.33;;
17151;SDS011;8691;50.828;4.700;2023-02-28T04:33:26;11.65;;;9.98;;
17151;SDS011;8691;50.828;4.700;2023-02-28T04:36:05;22.67;;;17.08;;
17151;SDS011;8691;50.828;4.700;2023-02-28T04:38:33;19.40;;;16.37;;
17151;SDS011;8691;50.828;4.700;2023-02-28T04:41:00;12.45;;;11.15;;
17151;SDS011;8691;50.828;4.700;2023-02-28T04:43:27;10.83;;;9.73;;
17151;SDS011;8691;50.828;4.700;2023-02-28T04:45:54;11.50;;;9.70;;
17151;SDS011;8691;50.828;4.700;2023-02-28T04:48:21;13.80;;;10.60;;
17151;SDS011;8691;50.828;4.700;2023-02-28T04:50:48;14.68;;;11.98;;
17151;SDS011;8691;50.828;4.700;2023-02-28T04:53:15;17.73;;;14.53;;
17151;SDS011;8691;50.828;4.700;2023-02-28T04:55:42;20.08;;;15.35;;
17151;SDS011;8691;50.828;4.700;2023-02-28T04:58:09;18.10;;;14.68;;
17151;SDS011;8691;50.828;4.700;2023-02-28T05:00:36;15.50;;;13.75;;
17151;SDS011;8691;50.828;4.700;2023-02-28T05:03:04;14.38;;;12.73;;
17151;SDS011;8691;50.828;4.700;2023-02-28T05:05:31;13.90;;;12.43;;
17151;SDS011;8691;50.828;4.700;2023-02-28T05:07:58;12.98;;;11.38;;
17151;SDS011;8691;50.828;4.700;2023-02-28T05:10:25;12.55;;;10.68;;
17151;SDS011;8691;50.828;4.700;2023-02-28T05:12:52;12.18;;;10.35;;
17151;SDS011;8691;50.828;4.700;2023-02-28T05:15:19;13.23;;;10.95;;
17151;SDS011;8691;50.828;4.700;2023-02-28T05:17:45;12.70;;;11.38;;
17151;SDS011;8691;50.828;4.700;2023-02-28T05:20:12;13.88;;;12.48;;
17151;SDS011;8691;50.828;4.700;2023-02-28T05:22:40;14.02;;;11.80;;
17151;SDS011;8691;50.828;4.700;2023-02-28T05:25:08;13.57;;;10.50;;
17151;SDS011;8691;50.828;4.700;2023-02-28T05:27:34;13.40;;;11.30;;
17151;SDS011;8691;50.828;4.700;2023-02-28T05:30:02;12.65;;;10.93;;
17151;SDS011;8691;50.828;4.700;2023-02-28T05:32:30;12.93;;;11.30;;
17151;SDS011;8691;50.828;4.700;2023-02-28T05:34:57;13.18;;;11.68;;
17151;SDS011;8691;50.828;4.700;2023-02-28T05:37:24;13.70;;;11.98;;
17151;SDS011;8691;50.828;4.700;2023-02-28T05:39:51;15.52;;;12.93;;
17151;SDS011;8691;50.828;4.700;2023-02-28T05:42:18;17.85;;;13.65;;
17151;SDS011;8691;50.828;4.700;2023-02-28T05:44:45;14.98;;;12.50;;
17151;SDS011;8691;50.828;4.700;2023-02-28T05:47:12;14.32;;;12.82;;
17151;SDS011;8691;50.828;4.700;2023-02-28T05:49:39;12.90;;;10.37;;
17151;SDS011;8691;50.828;4.700;2023-02-28T05:52:06;15.17;;;13.57;;
17151;SDS011;8691;50.828;4.700;2023-02-28T05:54:33;15.40;;;13.05;;
17151;SDS011;8691;50.828;4.700;2023-02-28T05:57:01;15.88;;;12.73;;
17151;SDS011;8691;50.828;4.700;2023-02-28T05:59:28;14.57;;;13.07;;
17151;SDS011;8691;50.828;4.700;2023-02-28T06:01:55;13.60;;;11.95;;
17151;SDS011;8691;50.828;4.700;2023-02-28T06:04:21;15.40;;;12.70;;
17151;SDS011;8691;50.828;4.700;2023-02-28T06:06:48;14.00;;;12.50;;
17151;SDS011;8691;50.828;4.700;2023-02-28T06:09:15;15.25;;;12.80;;
17151;SDS011;8691;50.828;4.700;2023-02-28T06:11:42;16.88;;;13.52;;
17151;SDS011;8691;50.828;4.700;2023-02-28T06:14:12;16.48;;;14.32;;
17151;SDS011;8691;50.828;4.700;2023-02-28T06:16:38;15.30;;;13.45;;
17151;SDS011;8691;50.828;4.700;2023-02-28T06:19:06;15.88;;;13.50;;
17151;SDS011;8691;50.828;4.700;2023-02-28T06:21:33;15.25;;;13.60;;
17151;SDS011;8691;50.828;4.700;2023-02-28T06:23:59;15.50;;;12.85;;
17151;SDS011;8691;50.828;4.700;2023-02-28T06:26:26;13.52;;;12.12;;
17151;SDS011;8691;50.828;4.700;2023-02-28T06:28:53;14.75;;;13.05;;
17151;SDS011;8691;50.828;4.700;2023-02-28T06:31:20;15.10;;;13.32;;
17151;SDS011;8691;50.828;4.700;2023-02-28T06:33:47;11.63;;;10.30;;
17151;SDS011;8691;50.828;4.700;2023-02-28T06:36:14;15.90;;;13.70;;
17151;SDS011;8691;50.828;4.700;2023-02-28T06:38:41;14.57;;;12.73;;
17151;SDS011;8691;50.828;4.700;2023-02-28T06:41:08;17.33;;;14.50;;
17151;SDS011;8691;50.828;4.700;2023-02-28T06:43:36;15.18;;;12.62;;
17151;SDS011;8691;50.828;4.700;2023-02-28T06:46:03;14.40;;;12.82;;
17151;SDS011;8691;50.828;4.700;2023-02-28T06:48:28;16.42;;;12.32;;
17151;SDS011;8691;50.828;4.700;2023-02-28T06:51:05;14.57;;;13.07;;
17151;SDS011;8691;50.828;4.700;2023-02-28T06:53:31;15.65;;;12.20;;
17151;SDS011;8691;50.828;4.700;2023-02-28T06:55:58;14.62;;;13.10;;
17151;SDS011;8691;50.828;4.700;2023-02-28T06:58:25;18.17;;;15.88;;
17151;SDS011;8691;50.828;4.700;2023-02-28T07:00:52;15.70;;;14.10;;
17151;SDS011;8691;50.828;4.700;2023-02-28T07:03:19;17.38;;;12.80;;
17151;SDS011;8691;50.828;4.700;2023-02-28T07:05:47;15.65;;;12.85;;
17151;SDS011;8691;50.828;4.700;2023-02-28T07:08:14;14.67;;;12.33;;
17151;SDS011;8691;50.828;4.700;2023-02-28T07:10:41;14.17;;;12.53;;
17151;SDS011;8691;50.828;4.700;2023-02-28T07:13:09;13.57;;;12.20;;
17151;SDS011;8691;50.828;4.700;2023-02-28T07:15:36;13.70;;;12.25;;
17151;SDS011;8691;50.828;4.700;2023-02-28T07:18:03;13.98;;;12.00;;
17151;SDS011;8691;50.828;4.700;2023-02-28T07:20:30;13.73;;;11.98;;
17151;SDS011;8691;50.828;4.700;2023-02-28T07:22:57;13.38;;;11.98;;
17151;SDS011;8691;50.828;4.700;2023-02-28T07:25:28;12.40;;;11.10;;
17151;SDS011;8691;50.828;4.700;2023-02-28T07:27:55;12.97;;;11.60;;
17151;SDS011;8691;50.828;4.700;2023-02-28T07:30:21;13.50;;;12.10;;
17151;SDS011;8691;50.828;4.700;2023-02-28T07:32:48;15.25;;;11.30;;
17151;SDS011;8691;50.828;4.700;2023-02-28T07:35:15;14.88;;;12.30;;
17151;SDS011;8691;50.828;4.700;2023-02-28T07:37:42;12.68;;;11.48;;
17151;SDS011;8691;50.828;4.700;2023-02-28T07:40:09;12.45;;;11.07;;
17151;SDS011;8691;50.828;4.700;2023-02-28T07:42:36;12.00;;;9.03;;
17151;SDS011;8691;50.828;4.700;2023-02-28T07:45:04;14.03;;;10.87;;
17151;SDS011;8691;50.828;4.700;2023-02-28T07:47:31;13.75;;;10.30;;
17151;SDS011;8691;50.828;4.700;2023-02-28T07:49:58;10.98;;;9.80;;
17151;SDS011;8691;50.828;4.700;2023-02-28T07:52:25;10.90;;;9.75;;
17151;SDS011;8691;50.828;4.700;2023-02-28T07:54:52;10.33;;;9.33;;
17151;SDS011;8691;50.828;4.700;2023-02-28T07:57:19;9.93;;;8.90;;
17151;SDS011;8691;50.828;4.700;2023-02-28T07:59:47;10.10;;;7.50;;
17151;SDS011;8691;50.828;4.700;2023-02-28T08:02:14;9.88;;;8.00;;
17151;SDS011;8691;50.828;4.700;2023-02-28T08:04:41;8.82;;;7.93;;
17151;SDS011;8691;50.828;4.700;2023-02-28T08:07:07;9.02;;;7.53;;
17151;SDS011;8691;50.828;4.700;2023-02-28T08:09:35;8.37;;;6.63;;
17151;SDS011;8691;50.828;4.700;2023-02-28T08:12:02;9.43;;;6.75;;
17151;SDS011;8691;50.828;4.700;2023-02-28T08:14:29;6.80;;;6.10;;
17151;SDS011;8691;50.828;4.700;2023-02-28T08:16:55;6.30;;;5.70;;
17151;SDS011;8691;50.828;4.700;2023-02-28T08:19:22;7.73;;;5.67;;
17151;SDS011;8691;50.828;4.700;2023-02-28T08:21:49;6.23;;;5.67;;
17151;SDS011;8691;50.828;4.700;2023-02-28T08:24:17;6.17;;;5.57;;
17151;SDS011;8691;50.828;4.700;2023-02-28T08:26:44;6.18;;;5.22;;
17151;SDS011;8691;50.828;4.700;2023-02-28T08:29:11;6.75;;;5.43;;
17151;SDS011;8691;50.828;4.700;2023-02-28T08:31:37;6.65;;;5.28;;
17151;SDS011;8691;50.828;4.700;2023-02-28T08:34:05;5.80;;;5.20;;
17151;SDS011;8691;50.828;4.700;2023-02-28T08:36:34;7.55;;;5.20;;
17151;SDS011;8691;50.828;4.700;2023-02-28T08:39:01;5.82;;;5.22;;
17151;SDS011;8691;50.828;4.700;2023-02-28T08:41:28;7.22;;;4.78;;
17151;SDS011;8691;50.828;4.700;2023-02-28T08:43:55;5.62;;;4.90;;
17151;SDS011;8691;50.828;4.700;2023-02-28T08:46:22;6.13;;;4.60;;
17151;SDS011;8691;50.828;4.700;2023-02-28T08:48:51;5.25;;;4.60;;
17151;SDS011;8691;50.828;4.700;2023-02-28T08:51:18;5.70;;;4.80;;
17151;SDS011;8691;50.828;4.700;2023-02-28T08:53:42;5.55;;;4.55;;
17151;SDS011;8691;50.828;4.700;2023-02-28T08:56:11;8.48;;;4.82;;
17151;SDS011;8691;50.828;4.700;2023-02-28T08:58:36;5.00;;;4.45;;
17151;SDS011;8691;50.828;4.700;2023-02-28T09:01:10;5.18;;;4.30;;
17151;SDS011;8691;50.828;4.700;2023-02-28T09:03:37;5.10;;;4.10;;
17151;SDS011;8691;50.828;4.700;2023-02-28T09:06:04;4.73;;;4.00;;
17151;SDS011;8691;50.828;4.700;2023-02-28T09:08:31;4.00;;;3.60;;
17151;SDS011;8691;50.828;4.700;2023-02-28T09:10:58;4.07;;;3.40;;
17151;SDS011;8691;50.828;4.700;2023-02-28T09:13:25;3.90;;;3.50;;
17151;SDS011;8691;50.828;4.700;2023-02-28T09:15:52;4.57;;;3.75;;
17151;SDS011;8691;50.828;4.700;2023-02-28T09:18:19;4.97;;;3.50;;
17151;SDS011;8691;50.828;4.700;2023-02-28T09:20:45;3.83;;;3.47;;
17151;SDS011;8691;50.828;4.700;2023-02-28T09:23:12;3.78;;;3.30;;
17151;SDS011;8691;50.828;4.700;2023-02-28T09:25:51;4.35;;;3.58;;
17151;SDS011;8691;50.828;4.700;2023-02-28T09:28:13;3.87;;;3.30;;
17151;SDS011;8691;50.828;4.700;2023-02-28T09:30:39;7.00;;;3.07;;
17151;SDS011;8691;50.828;4.700;2023-02-28T09:33:06;4.93;;;3.22;;
17151;SDS011;8691;50.828;4.700;2023-02-28T09:35:33;3.55;;;3.15;;
17151;SDS011;8691;50.828;4.700;2023-02-28T09:38:01;3.67;;;3.35;;
17151;SDS011;8691;50.828;4.700;2023-02-28T09:40:28;3.55;;;3.12;;
17151;SDS011;8691;50.828;4.700;2023-02-28T09:42:55;3.20;;;2.90;;
17151;SDS011;8691;50.828;4.700;2023-02-28T09:45:24;3.33;;;2.90;;
17151;SDS011;8691;50.828;4.700;2023-02-28T09:47:49;2.70;;;2.50;;
17151;SDS011;8691;50.828;4.700;2023-02-28T09:50:18;3.83;;;2.87;;
17151;SDS011;8691;50.828;4.700;2023-02-28T09:52:48;3.10;;;2.80;;
17151;SDS011;8691;50.828;4.700;2023-02-28T09:55:19;3.70;;;2.70;;
17151;SDS011;8691;50.828;4.700;2023-02-28T09:57:48;3.10;;;2.80;;
17151;SDS011;8691;50.828;4.700;2023-02-28T10:00:18;3.17;;;2.70;;
17151;SDS011;8691;50.828;4.700;2023-02-28T10:05:28;3.38;;;2.42;;
17151;SDS011;8691;50.828;4.700;2023-02-28T10:08:08;3.15;;;2.80;;
17151;SDS011;8691;50.828;4.700;2023-02-28T10:10:45;3.25;;;2.90;;
17151;SDS011;8691;50.828;4.700;2023-02-28T10:16:06;4.70;;;2.90;;
17151;SDS011;8691;50.828;4.700;2023-02-28T10:18:51;2.78;;;2.40;;
17151;SDS011;8691;50.828;4.700;2023-02-28T10:21:24;3.80;;;2.70;;
17151;SDS011;8691;50.828;4.700;2023-02-28T10:23:48;2.92;;;2.65;;
17151;SDS011;8691;50.828;4.700;2023-02-28T10:26:16;3.37;;;2.83;;
17151;SDS011;8691;50.828;4.700;2023-02-28T10:28:45;4.07;;;2.83;;
17151;SDS011;8691;50.828;4.700;2023-02-28T10:31:18;2.88;;;2.60;;
17151;SDS011;8691;50.828;4.700;2023-02-28T10:33:39;2.70;;;2.50;;
17151;SDS011;8691;50.828;4.700;2023-02-28T10:36:08;2.97;;;2.50;;
17151;SDS011;8691;50.828;4.700;2023-02-28T10:38:35;3.30;;;2.50;;
17151;SDS011;8691;50.828;4.700;2023-02-28T10:41:07;2.67;;;2.47;;
17151;SDS011;8691;50.828;4.700;2023-02-28T10:43:33;4.10;;;2.47;;
17151;SDS011;8691;50.828;4.700;2023-02-28T10:48:44;3.00;;;2.60;;
17151;SDS011;8691;50.828;4.700;2023-02-28T10:51:18;4.23;;;2.90;;
17151;SDS011;8691;50.828;4.700;2023-02-28T10:56:20;3.73;;;3.00;;
17151;SDS011;8691;50.828;4.700;2023-02-28T10:58:47;3.20;;;2.80;;
17151;SDS011;8691;50.828;4.700;2023-02-28T11:01:24;4.00;;;3.28;;
17151;SDS011;8691;50.828;4.700;2023-02-28T11:03:49;3.10;;;2.80;;
17151;SDS011;8691;50.828;4.700;2023-02-28T11:06:19;3.92;;;3.20;;
17151;SDS011;8691;50.828;4.700;2023-02-28T11:08:47;3.80;;;3.10;;
17151;SDS011;8691;50.828;4.700;2023-02-28T11:11:13;3.60;;;3.25;;
17151;SDS011;8691;50.828;4.700;2023-02-28T11:13:40;4.05;;;3.30;;
17151;SDS011;8691;50.828;4.700;2023-02-28T11:16:07;3.50;;;3.20;;
17151;SDS011;8691;50.828;4.700;2023-02-28T11:18:36;3.03;;;2.73;;
17151;SDS011;8691;50.828;4.700;2023-02-28T11:21:02;3.40;;;2.42;;
17151;SDS011;8691;50.828;4.700;2023-02-28T11:23:30;2.95;;;2.67;;
17151;SDS011;8691;50.828;4.700;2023-02-28T11:25:58;3.53;;;2.40;;
17151;SDS011;8691;50.828;4.700;2023-02-28T11:33:27;2.75;;;2.50;;
17151;SDS011;8691;50.828;4.700;2023-02-28T11:36:03;3.00;;;2.70;;
17151;SDS011;8691;50.828;4.700;2023-02-28T11:38:29;2.83;;;2.63;;
17151;SDS011;8691;50.828;4.700;2023-02-28T11:46:13;3.30;;;2.97;;
17151;SDS011;8691;50.828;4.700;2023-02-28T11:48:48;3.33;;;3.03;;
17151;SDS011;8691;50.828;4.700;2023-02-28T11:51:22;3.00;;;2.70;;
17151;SDS011;8691;50.828;4.700;2023-02-28T11:56:31;3.23;;;2.93;;
17151;SDS011;8691;50.828;4.700;2023-02-28T12:07:00;4.32;;;2.95;;
17151;SDS011;8691;50.828;4.700;2023-02-28T12:09:40;3.85;;;3.15;;
17151;SDS011;8691;50.828;4.700;2023-02-28T12:12:18;3.53;;;2.80;;
17151;SDS011;8691;50.828;4.700;2023-02-28T12:17:36;3.28;;;2.97;;
17151;SDS011;8691;50.828;4.700;2023-02-28T12:20:21;3.33;;;2.93;;
17151;SDS011;8691;50.828;4.700;2023-02-28T12:22:50;3.20;;;2.90;;
17151;SDS011;8691;50.828;4.700;2023-02-28T12:28:03;3.20;;;2.90;;
17151;SDS011;8691;50.828;4.700;2023-02-28T12:30:34;2.80;;;2.60;;
17151;SDS011;8691;50.828;4.700;2023-02-28T12:33:06;3.22;;;2.92;;
17151;SDS011;8691;50.828;4.700;2023-02-28T12:35:41;3.30;;;2.90;;
17151;SDS011;8691;50.828;4.700;2023-02-28T12:38:51;2.85;;;2.65;;
17151;SDS011;8691;50.828;4.700;2023-02-28T12:43:08;3.23;;;2.93;;
17151;SDS011;8691;50.828;4.700;2023-02-28T12:45:49;3.17;;;2.90;;
17151;SDS011;8691;50.828;4.700;2023-02-28T12:48:15;3.45;;;3.15;;
17151;SDS011;8691;50.828;4.700;2023-02-28T12:50:41;3.33;;;3.03;;
17151;SDS011;8691;50.828;4.700;2023-02-28T12:58:33;2.90;;;2.60;;
17151;SDS011;8691;50.828;4.700;2023-02-28T13:09:31;3.50;;;3.20;;
17151;SDS011;8691;50.828;4.700;2023-02-28T13:11:58;3.47;;;3.17;;
17151;SDS011;8691;50.828;4.700;2023-02-28T13:14:28;3.90;;;3.08;;
17151;SDS011;8691;50.828;4.700;2023-02-28T13:19:34;3.27;;;2.77;;
17151;SDS011;8691;50.828;4.700;2023-02-28T13:22:00;3.27;;;2.97;;
17151;SDS011;8691;50.828;4.700;2023-02-28T13:27:11;3.67;;;2.90;;
17151;SDS011;8691;50.828;4.700;2023-02-28T13:29:37;3.30;;;3.00;;
17151;SDS011;8691;50.828;4.700;2023-02-28T13:34:40;2.90;;;2.70;;
17151;SDS011;8691;50.828;4.700;2023-02-28T13:39:51;5.00;;;3.20;;
17151;SDS011;8691;50.828;4.700;2023-02-28T13:47:42;3.30;;;3.00;;
17151;SDS011;8691;50.828;4.700;2023-02-28T14:01:04;5.53;;;3.25;;
17151;SDS011;8691;50.828;4.700;2023-02-28T14:03:51;3.42;;;3.08;;
17151;SDS011;8691;50.828;4.700;2023-02-28T14:06:18;3.90;;;3.20;;
17151;SDS011;8691;50.828;4.700;2023-02-28T14:08:59;4.00;;;3.30;;
17151;SDS011;8691;50.828;4.700;2023-02-28T14:11:31;3.70;;;3.30;;
17151;SDS011;8691;50.828;4.700;2023-02-28T14:14:01;3.00;;;2.80;;
17151;SDS011;8691;50.828;4.700;2023-02-28T14:16:28;3.50;;;3.20;;
17151;SDS011;8691;50.828;4.700;2023-02-28T14:19:01;3.80;;;3.17;;
17151;SDS011;8691;50.828;4.700;2023-02-28T14:21:27;3.50;;;3.20;;
17151;SDS011;8691;50.828;4.700;2023-02-28T14:34:51;4.72;;;3.95;;
17151;SDS011;8691;50.828;4.700;2023-02-28T14:37:17;4.78;;;3.85;;
17151;SDS011;8691;50.828;4.700;2023-02-28T14:39:42;3.90;;;3.25;;
17151;SDS011;8691;50.828;4.700;2023-02-28T14:44:54;4.57;;;3.33;;
17151;SDS011;8691;50.828;4.700;2023-02-28T14:47:21;3.13;;;2.83;;
17151;SDS011;8691;50.828;4.700;2023-02-28T14:49:48;3.62;;;3.33;;
17151;SDS011;8691;50.828;4.700;2023-02-28T14:52:17;3.70;;;3.30;;
17151;SDS011;8691;50.828;4.700;2023-02-28T14:54:54;3.95;;;3.60;;
17151;SDS011;8691;50.828;4.700;2023-02-28T14:57:29;4.30;;;3.90;;
17151;SDS011;8691;50.828;4.700;2023-02-28T14:59:56;3.95;;;3.60;;
17151;SDS011;8691;50.828;4.700;2023-02-28T15:02:24;3.83;;;3.38;;
17151;SDS011;8691;50.828;4.700;2023-02-28T15:04:57;3.88;;;3.58;;
17151;SDS011;8691;50.828;4.700;2023-02-28T15:07:20;3.72;;;3.42;;
17151;SDS011;8691;50.828;4.700;2023-02-28T15:09:47;4.15;;;3.42;;
17151;SDS011;8691;50.828;4.700;2023-02-28T15:12:14;4.67;;;3.50;;
17151;SDS011;8691;50.828;4.700;2023-02-28T15:14:42;3.72;;;3.42;;
17151;SDS011;8691;50.828;4.700;2023-02-28T15:17:11;3.73;;;3.43;;
17151;SDS011;8691;50.828;4.700;2023-02-28T15:19:36;4.30;;;3.85;;
17151;SDS011;8691;50.828;4.700;2023-02-28T15:22:04;3.90;;;3.60;;
17151;SDS011;8691;50.828;4.700;2023-02-28T15:24:39;3.97;;;3.20;;
17151;SDS011;8691;50.828;4.700;2023-02-28T15:27:06;4.17;;;3.60;;
17151;SDS011;8691;50.828;4.700;2023-02-28T15:29:33;4.10;;;3.62;;
17151;SDS011;8691;50.828;4.700;2023-02-28T15:32:04;3.97;;;3.67;;
17151;SDS011;8691;50.828;4.700;2023-02-28T15:34:36;3.70;;;3.40;;
17151;SDS011;8691;50.828;4.700;2023-02-28T15:39:53;3.73;;;3.40;;
17151;SDS011;8691;50.828;4.700;2023-02-28T15:42:20;4.00;;;3.60;;
17151;SDS011;8691;50.828;4.700;2023-02-28T15:44:46;3.70;;;3.40;;
17151;SDS011;8691;50.828;4.700;2023-02-28T15:47:17;4.57;;;3.57;;
17151;SDS011;8691;50.828;4.700;2023-02-28T15:49:52;4.00;;;3.53;;
17151;SDS011;8691;50.828;4.700;2023-02-28T15:52:22;3.90;;;3.50;;
17151;SDS011;8691;50.828;4.700;2023-02-28T15:54:48;3.97;;;3.57;;
17151;SDS011;8691;50.828;4.700;2023-02-28T15:57:20;3.87;;;3.57;;
17151;SDS011;8691;50.828;4.700;2023-02-28T15:59:57;4.00;;;3.55;;
17151;SDS011;8691;50.828;4.700;2023-02-28T16:02:21;3.80;;;3.37;;
17151;SDS011;8691;50.828;4.700;2023-02-28T16:05:00;4.10;;;3.70;;
17151;SDS011;8691;50.828;4.700;2023-02-28T16:07:26;4.70;;;4.03;;
17151;SDS011;8691;50.828;4.700;2023-02-28T16:09:53;4.30;;;3.70;;
17151;SDS011;8691;50.828;4.700;2023-02-28T16:12:21;3.97;;;3.58;;
17151;SDS011;8691;50.828;4.700;2023-02-28T16:14:48;3.88;;;3.47;;
17151;SDS011;8691;50.828;4.700;2023-02-28T16:17:17;3.95;;;3.50;;
17151;SDS011;8691;50.828;4.700;2023-02-28T16:19:44;3.70;;;3.40;;
17151;SDS011;8691;50.828;4.700;2023-02-28T16:22:11;3.70;;;3.40;;
17151;SDS011;8691;50.828;4.700;2023-02-28T16:24:38;4.32;;;3.60;;
17151;SDS011;8691;50.828;4.700;2023-02-28T16:27:05;4.72;;;3.33;;
17151;SDS011;8691;50.828;4.700;2023-02-28T16:29:33;3.23;;;2.90;;
17151;SDS011;8691;50.828;4.700;2023-02-28T16:31:59;3.75;;;3.45;;
17151;SDS011;8691;50.828;4.700;2023-02-28T16:34:25;3.03;;;2.80;;
17151;SDS011;8691;50.828;4.700;2023-02-28T16:36:52;4.18;;;3.78;;
17151;SDS011;8691;50.828;4.700;2023-02-28T16:39:19;4.20;;;3.53;;
17151;SDS011;8691;50.828;4.700;2023-02-28T16:41:49;3.67;;;3.38;;
17151;SDS011;8691;50.828;4.700;2023-02-28T16:44:35;4.68;;;3.85;;
17151;SDS011;8691;50.828;4.700;2023-02-28T16:47:02;3.90;;;3.60;;
17151;SDS011;8691;50.828;4.700;2023-02-28T16:49:28;3.92;;;3.45;;
17151;SDS011;8691;50.828;4.700;2023-02-28T16:51:56;4.47;;;3.40;;
17151;SDS011;8691;50.828;4.700;2023-02-28T16:54:23;4.35;;;3.55;;
17151;SDS011;8691;50.828;4.700;2023-02-28T16:56:50;4.15;;;3.30;;
17151;SDS011;8691;50.828;4.700;2023-02-28T16:59:18;4.70;;;4.05;;